TAP6748 LPFR-LXGB
Flight info
| Callsign | TAP6748 |
|---|---|
| Flight time | N/A |
| Altitude | 24000 |
| Route | NIRAK Y136 NAPES/N0382F180 N747 SVL/N0377F170 M744 MAR N864 PIMOS |
| Aircraft | A20N/M-SDE2E3FGHIRWXY/LB1 |
Departure
| Time | 2026-05-05 19:22 |
|---|---|
| Airport | Faro - Gago Coutinho International Airport (LPFR) |
Arrival
| Time | N/A |
|---|---|
| Airport | Gibraltar Airport (LXGB) |
| Time | Latitude | Longitude | Altitude | Speed | Heading |
|---|---|---|---|---|---|
| 2026-05-05 19:03 | 37.01902 | -7.96696 | 25 ft | 0 kts | 11° |
| 2026-05-05 19:12 | 37.01896 | -7.96698 | 26 ft | 2 kts | 10° |
| 2026-05-05 19:12 | 37.01882 | -7.96701 | 26 ft | 2 kts | 11° |
| 2026-05-05 19:13 | 37.01868 | -7.96704 | 26 ft | 2 kts | 11° |
| 2026-05-05 19:13 | 37.01853 | -7.96708 | 26 ft | 2 kts | 11° |
| 2026-05-05 19:13 | 37.01838 | -7.96711 | 25 ft | 2 kts | 11° |
| 2026-05-05 19:13 | 37.01825 | -7.96714 | 25 ft | 0 kts | 11° |
| 2026-05-05 19:14 | 37.01817 | -7.96716 | 25 ft | 1 kts | 339° |
| 2026-05-05 19:14 | 37.01808 | -7.96706 | 25 ft | 0 kts | 286° |
| 2026-05-05 19:14 | 37.01807 | -7.96698 | 25 ft | 1 kts | 277° |
| 2026-05-05 19:14 | 37.01807 | -7.96695 | 25 ft | 0 kts | 279° |
| 2026-05-05 19:16 | 37.01822 | -7.96803 | 25 ft | 29 kts | 275° |
| 2026-05-05 19:17 | 37.01696 | -7.96909 | 23 ft | 19 kts | 161° |
| 2026-05-05 19:17 | 37.01666 | -7.96830 | 22 ft | 6 kts | 114° |
| 2026-05-05 19:17 | 37.01638 | -7.96684 | 22 ft | 23 kts | 99° |
| 2026-05-05 19:17 | 37.01609 | -7.96488 | 22 ft | 22 kts | 101° |
| 2026-05-05 19:18 | 37.01583 | -7.96292 | 21 ft | 22 kts | 101° |
| 2026-05-05 19:18 | 37.01554 | -7.96092 | 19 ft | 23 kts | 96° |
| 2026-05-05 19:18 | 37.01534 | -7.95943 | 18 ft | 0 kts | 100° |
| 2026-05-05 19:18 | 37.01532 | -7.95937 | 18 ft | 1 kts | 100° |
| 2026-05-05 19:19 | 37.01521 | -7.95886 | 17 ft | 10 kts | 111° |
| 2026-05-05 19:19 | 37.01487 | -7.95839 | 16 ft | 3 kts | 163° |
| 2026-05-05 19:19 | 37.01476 | -7.95839 | 16 ft | 1 kts | 186° |
| 2026-05-05 19:19 | 37.01458 | -7.95841 | 16 ft | 3 kts | 187° |
| 2026-05-05 19:20 | 37.01442 | -7.95845 | 16 ft | 0 kts | 191° |
| 2026-05-05 19:20 | 37.01436 | -7.95846 | 16 ft | 0 kts | 192° |
| 2026-05-05 19:20 | 37.01435 | -7.95846 | 16 ft | 0 kts | 192° |
| 2026-05-05 19:20 | 37.01434 | -7.95847 | 16 ft | 0 kts | 192° |
| 2026-05-05 19:21 | 37.01416 | -7.95852 | 16 ft | 14 kts | 193° |
| 2026-05-05 19:21 | 37.01348 | -7.95917 | 17 ft | 9 kts | 269° |
| 2026-05-05 19:21 | 37.01358 | -7.96004 | 19 ft | 27 kts | 280° |
| 2026-05-05 19:21 | 37.01448 | -7.96595 | 22 ft | 108 kts | 278° |
| 2026-05-05 19:22 | 37.01611 | -7.97813 | 107 ft | 166 kts | 281° |
| 2026-05-05 19:22 | 37.01785 | -7.99217 | 945 ft | 167 kts | 282° |
| 2026-05-05 19:22 | 37.01942 | -8.00650 | 1858 ft | 173 kts | 282° |
| 2026-05-05 19:22 | 37.02045 | -8.02154 | 2661 ft | 182 kts | 285° |
| 2026-05-05 19:23 | 37.02307 | -8.03698 | 3389 ft | 187 kts | 284° |
| 2026-05-05 19:23 | 37.02431 | -8.05348 | 4032 ft | 198 kts | 281° |
| 2026-05-05 19:23 | 37.02718 | -8.07048 | 4709 ft | 205 kts | 286° |
| 2026-05-05 19:23 | 37.02800 | -8.08829 | 5326 ft | 220 kts | 257° |
| 2026-05-05 19:24 | 37.01919 | -8.10455 | 5829 ft | 241 kts | 217° |
| 2026-05-05 19:24 | 37.00320 | -8.11266 | 6268 ft | 263 kts | 184° |
| 2026-05-05 19:24 | 36.98502 | -8.10813 | 6846 ft | 278 kts | 149° |
| 2026-05-05 19:24 | 36.97056 | -8.09210 | 7654 ft | 283 kts | 122° |
| 2026-05-05 19:25 | 36.96374 | -8.06947 | 8524 ft | 284 kts | 99° |
| 2026-05-05 19:25 | 36.96055 | -8.04512 | 9366 ft | 290 kts | 98° |
| 2026-05-05 19:25 | 36.95725 | -8.02002 | 10176 ft | 296 kts | 98° |
| 2026-05-05 19:25 | 36.95382 | -7.99441 | 10799 ft | 309 kts | 99° |
| 2026-05-05 19:26 | 36.95013 | -7.96735 | 11244 ft | 327 kts | 99° |
| 2026-05-05 19:26 | 36.94619 | -7.93874 | 11649 ft | 345 kts | 99° |
| 2026-05-05 19:26 | 36.94195 | -7.90822 | 12022 ft | 364 kts | 99° |
| 2026-05-05 19:26 | 36.93752 | -7.87645 | 12350 ft | 382 kts | 99° |
| 2026-05-05 19:27 | 36.93287 | -7.84328 | 12756 ft | 397 kts | 99° |
| 2026-05-05 19:27 | 36.92802 | -7.80878 | 13413 ft | 403 kts | 99° |
| 2026-05-05 19:27 | 36.92321 | -7.77463 | 14117 ft | 408 kts | 99° |
| 2026-05-05 19:27 | 36.91824 | -7.73937 | 14792 ft | 412 kts | 99° |
| 2026-05-05 19:28 | 36.91328 | -7.70425 | 15454 ft | 416 kts | 99° |
| 2026-05-05 19:28 | 36.90827 | -7.66887 | 16105 ft | 420 kts | 99° |
| 2026-05-05 19:28 | 36.90315 | -7.63279 | 16720 ft | 425 kts | 99° |
| 2026-05-05 19:28 | 36.89800 | -7.59650 | 17306 ft | 429 kts | 99° |
| 2026-05-05 19:29 | 36.89275 | -7.55968 | 17919 ft | 433 kts | 100° |
| 2026-05-05 19:29 | 36.88744 | -7.52249 | 18487 ft | 438 kts | 100° |
| 2026-05-05 19:29 | 36.88207 | -7.48501 | 19042 ft | 442 kts | 100° |
| 2026-05-05 19:29 | 36.87666 | -7.44739 | 19587 ft | 446 kts | 100° |
| 2026-05-05 19:30 | 36.87117 | -7.40928 | 20118 ft | 450 kts | 100° |
| 2026-05-05 19:30 | 36.86556 | -7.37035 | 20648 ft | 454 kts | 100° |
| 2026-05-05 19:30 | 36.85999 | -7.33185 | 21144 ft | 458 kts | 101° |
| 2026-05-05 19:30 | 36.85432 | -7.29272 | 21623 ft | 462 kts | 101° |
| 2026-05-05 19:31 | 36.84858 | -7.25321 | 22111 ft | 465 kts | 101° |
| 2026-05-05 19:31 | 36.84277 | -7.21329 | 22577 ft | 469 kts | 101° |
| 2026-05-05 19:31 | 36.83691 | -7.17316 | 23027 ft | 472 kts | 101° |
| 2026-05-05 19:31 | 36.83105 | -7.13309 | 23462 ft | 476 kts | 101° |
| 2026-05-05 19:32 | 36.82511 | -7.09266 | 23857 ft | 479 kts | 101° |
| 2026-05-05 19:32 | 36.81911 | -7.05176 | 23973 ft | 481 kts | 101° |
| 2026-05-05 19:32 | 36.81303 | -7.01057 | 23982 ft | 481 kts | 101° |
| 2026-05-05 19:32 | 36.80706 | -6.97013 | 23977 ft | 481 kts | 101° |
| 2026-05-05 19:33 | 36.80092 | -6.92874 | 23987 ft | 480 kts | 101° |
| 2026-05-05 19:33 | 36.79488 | -6.88807 | 23978 ft | 480 kts | 101° |
| 2026-05-05 19:33 | 36.78885 | -6.84753 | 23971 ft | 480 kts | 101° |
| 2026-05-05 19:33 | 36.78269 | -6.80625 | 23986 ft | 481 kts | 101° |
| 2026-05-05 19:34 | 36.77665 | -6.76587 | 23977 ft | 480 kts | 101° |
| 2026-05-05 19:34 | 36.77053 | -6.72502 | 23969 ft | 481 kts | 101° |
| 2026-05-05 19:34 | 36.76434 | -6.68389 | 23962 ft | 481 kts | 101° |
| 2026-05-05 19:35 | 36.75200 | -6.60204 | 23963 ft | 482 kts | 101° |
| 2026-05-05 19:35 | 36.74580 | -6.56109 | 23965 ft | 482 kts | 101° |
| 2026-05-05 19:35 | 36.73963 | -6.52046 | 23968 ft | 482 kts | 101° |
| 2026-05-05 19:35 | 36.73340 | -6.47948 | 23966 ft | 482 kts | 101° |
| 2026-05-05 19:36 | 36.72715 | -6.43856 | 23977 ft | 482 kts | 101° |
| 2026-05-05 19:36 | 36.72085 | -6.39738 | 23973 ft | 482 kts | 101° |
| 2026-05-05 19:36 | 36.71463 | -6.35672 | 23969 ft | 482 kts | 101° |
| 2026-05-05 19:36 | 36.70841 | -6.31618 | 23963 ft | 469 kts | 102° |
| 2026-05-05 19:37 | 36.70244 | -6.27724 | 23967 ft | 450 kts | 102° |
| 2026-05-05 19:37 | 36.69666 | -6.23970 | 23980 ft | 431 kts | 102° |
| 2026-05-05 19:37 | 36.69111 | -6.20380 | 23969 ft | 414 kts | 102° |
| 2026-05-05 19:37 | 36.68579 | -6.16942 | 23964 ft | 400 kts | 102° |
| 2026-05-05 19:38 | 36.68053 | -6.13555 | 23977 ft | 406 kts | 102° |
| 2026-05-05 19:38 | 36.67497 | -6.09994 | 23977 ft | 425 kts | 102° |
| 2026-05-05 19:38 | 36.66927 | -6.06352 | 23976 ft | 443 kts | 102° |
| 2026-05-05 19:38 | 36.66327 | -6.02520 | 23978 ft | 459 kts | 102° |
| 2026-05-05 19:39 | 36.65704 | -5.98545 | 23979 ft | 474 kts | 102° |
| 2026-05-05 19:39 | 36.65065 | -5.94476 | 23969 ft | 481 kts | 102° |
| 2026-05-05 19:39 | 36.64429 | -5.90423 | 23973 ft | 483 kts | 102° |
| 2026-05-05 19:39 | 36.63783 | -5.86321 | 23970 ft | 483 kts | 102° |
| 2026-05-05 19:40 | 36.63139 | -5.82238 | 23958 ft | 483 kts | 102° |
| 2026-05-05 19:40 | 36.62484 | -5.78103 | 23392 ft | 485 kts | 102° |
| 2026-05-05 19:40 | 36.61832 | -5.73999 | 22545 ft | 485 kts | 102° |
| 2026-05-05 19:40 | 36.61188 | -5.69954 | 21864 ft | 481 kts | 102° |
| 2026-05-05 19:41 | 36.60538 | -5.65887 | 21200 ft | 475 kts | 102° |
| 2026-05-05 19:41 | 36.59901 | -5.61902 | 20707 ft | 465 kts | 102° |
| 2026-05-05 19:41 | 36.59278 | -5.58014 | 20022 ft | 462 kts | 102° |
| 2026-05-05 19:41 | 36.58655 | -5.54141 | 19353 ft | 458 kts | 101° |
| 2026-05-05 19:42 | 36.58033 | -5.50281 | 18711 ft | 453 kts | 101° |
| 2026-05-05 19:42 | 36.57404 | -5.46477 | 18072 ft | 447 kts | 103° |
| 2026-05-05 19:42 | 36.56257 | -5.42951 | 17285 ft | 442 kts | 123° |
| 2026-05-05 19:42 | 36.54328 | -5.40068 | 16560 ft | 436 kts | 135° |
| 2026-05-05 19:43 | 36.52159 | -5.37421 | 15811 ft | 433 kts | 137° |
| 2026-05-05 19:43 | 36.50037 | -5.34868 | 15078 ft | 427 kts | 137° |
| 2026-05-05 19:43 | 36.47965 | -5.32307 | 14328 ft | 408 kts | 136° |
| 2026-05-05 19:43 | 36.46032 | -5.29850 | 13585 ft | 388 kts | 136° |
| 2026-05-05 19:44 | 36.44227 | -5.27519 | 12851 ft | 371 kts | 135° |
| 2026-05-05 19:44 | 36.42484 | -5.25246 | 12110 ft | 356 kts | 135° |
| 2026-05-05 19:44 | 36.40822 | -5.23067 | 11373 ft | 343 kts | 135° |
| 2026-05-05 19:44 | 36.39232 | -5.20975 | 10698 ft | 330 kts | 135° |
| 2026-05-05 19:45 | 36.37703 | -5.18961 | 10513 ft | 304 kts | 135° |
| 2026-05-05 19:45 | 36.36323 | -5.17138 | 10384 ft | 281 kts | 135° |
| 2026-05-05 19:45 | 36.34990 | -5.15383 | 10258 ft | 279 kts | 135° |
| 2026-05-05 19:45 | 36.33659 | -5.13634 | 10131 ft | 278 kts | 135° |
| 2026-05-05 19:46 | 36.32335 | -5.11895 | 10009 ft | 277 kts | 135° |
| 2026-05-05 19:46 | 36.31018 | -5.10164 | 9738 ft | 279 kts | 135° |
| 2026-05-05 19:46 | 36.29680 | -5.08408 | 9395 ft | 280 kts | 135° |
| 2026-05-05 19:46 | 36.28350 | -5.06661 | 9061 ft | 280 kts | 135° |
| 2026-05-05 19:47 | 36.27020 | -5.04914 | 8731 ft | 280 kts | 135° |
| 2026-05-05 19:47 | 36.25691 | -5.03171 | 8401 ft | 278 kts | 134° |
| 2026-05-05 19:47 | 36.24350 | -5.01417 | 8070 ft | 278 kts | 134° |
| 2026-05-05 19:47 | 36.23027 | -4.99676 | 7731 ft | 277 kts | 134° |
| 2026-05-05 19:48 | 36.21712 | -4.97947 | 7401 ft | 276 kts | 134° |
| 2026-05-05 19:48 | 36.20307 | -4.96364 | 6912 ft | 278 kts | 152° |
| 2026-05-05 19:48 | 36.18471 | -4.95764 | 6164 ft | 276 kts | 185° |
| 2026-05-05 19:48 | 36.16700 | -4.96501 | 5418 ft | 272 kts | 217° |
| 2026-05-05 19:49 | 36.15430 | -4.98170 | 4675 ft | 268 kts | 242° |
| 2026-05-05 19:49 | 36.14949 | -4.99575 | 4170 ft | 265 kts | 258° |
| 2026-05-05 19:49 | 36.14846 | -5.02546 | 3220 ft | 259 kts | 274° |
| 2026-05-05 19:49 | 36.14914 | -5.04673 | 3028 ft | 236 kts | 274° |
| 2026-05-05 19:50 | 36.14962 | -5.06605 | 3011 ft | 219 kts | 274° |
| 2026-05-05 19:50 | 36.14996 | -5.08427 | 2993 ft | 203 kts | 274° |
| 2026-05-05 19:50 | 36.15020 | -5.10115 | 2979 ft | 192 kts | 274° |
| 2026-05-05 19:50 | 36.15041 | -5.11765 | 2963 ft | 192 kts | 274° |
| 2026-05-05 19:51 | 36.15057 | -5.13425 | 2914 ft | 192 kts | 273° |
| 2026-05-05 19:51 | 36.15068 | -5.15078 | 2828 ft | 191 kts | 273° |
| 2026-05-05 19:51 | 36.15078 | -5.16719 | 2715 ft | 190 kts | 273° |
| 2026-05-05 19:51 | 36.15086 | -5.18327 | 2543 ft | 183 kts | 273° |
| 2026-05-05 19:52 | 36.15093 | -5.19886 | 2225 ft | 179 kts | 273° |
| 2026-05-05 19:52 | 36.15098 | -5.21366 | 1993 ft | 162 kts | 273° |
| 2026-05-05 19:52 | 36.15102 | -5.22677 | 1752 ft | 147 kts | 274° |
| 2026-05-05 19:52 | 36.15090 | -5.23884 | 1500 ft | 135 kts | 272° |
| 2026-05-05 19:53 | 36.15055 | -5.25011 | 1211 ft | 127 kts | 271° |
| 2026-05-05 19:53 | 36.15010 | -5.26068 | 938 ft | 122 kts | 270° |
| 2026-05-05 19:53 | 36.15068 | -5.27119 | 739 ft | 122 kts | 277° |
| 2026-05-05 19:53 | 36.15173 | -5.28156 | 660 ft | 123 kts | 276° |
| 2026-05-05 19:54 | 36.15203 | -5.29209 | 601 ft | 123 kts | 272° |
| 2026-05-05 19:54 | 36.15113 | -5.30269 | 552 ft | 123 kts | 271° |
| 2026-05-05 19:54 | 36.15196 | -5.31325 | 523 ft | 123 kts | 275° |
| 2026-05-05 19:54 | 36.15200 | -5.32370 | 311 ft | 122 kts | 268° |
| 2026-05-05 19:55 | 36.15171 | -5.33426 | 136 ft | 122 kts | 267° |
| 2026-05-05 19:55 | 36.15131 | -5.34466 | 17 ft | 115 kts | 273° |
| 2026-05-05 19:55 | 36.15111 | -5.35254 | 13 ft | 71 kts | 264° |